Surface/Precipitation History
03/25/2019 20:59  to  3/26/2019 20:59
Change End Date:
Date/Time
(MDT)
Sf
Temp Chem Water Layer Surface Precipitation
Sfc Pvt Sub Frz Factor Pct Dpth DpthThk IcePct Cond Salin FI Type Intens Accum Rate
03/26/2019 20:45 Trace Moisture 38.7F - 37F - 5 - - - - 0 mhos 4 - None None - -
03/26/2019 20:39 Trace Moisture 38.7F - 37F - 5 - - - - 0 mhos 4 - None None - -
03/26/2019 20:28 Trace Moisture 38.8F - 37F - 5 - - - - 0 mhos 4 - None None - -
03/26/2019 20:18 Trace Moisture 39.2F - 37F - 5 - - - - 0 mhos 4 - None None - -
03/26/2019 20:15 Trace Moisture 39.2F - 37F - 5 - - - - 0 mhos 4 - None None - -
03/26/2019 20:08 Trace Moisture 39.6F - 37F - 5 - - - - 0 mhos 4 - None None - -
03/26/2019 19:58 Trace Moisture 40.1F - 37F - 5 - - - - 0 mhos 4 - None None - -
03/26/2019 19:48 Trace Moisture 40.6F - 37F - 5 - - - - 0 mhos 5 - None None - -
03/26/2019 19:45 Trace Moisture 40.6F - 37F - 5 - - - - 0 mhos 5 - None None - -
03/26/2019 19:38 Dry 41.0F - 37F - - - - - - 0 mhos 5 - None None - -
03/26/2019 19:28 Trace Moisture 41.5F - 37F - 5 - - - - 0 mhos 5 - None None - -
03/26/2019 19:18 Dry 42.1F - 37F - - - - - - 0 mhos 6 - None None - -
03/26/2019 19:15 Dry 42.3F - 37F - - - - - - 0 mhos 6 - None None - -
03/26/2019 19:08 Dry 42.4F - 37F - - - - - - 0 mhos 6 - None None - -
03/26/2019 18:58 Dry 42.4F - 37F - - - - - - 0 mhos 7 - None None - -
Date/Time
(MDT)
Sf
Temp Chem Water Layer Surface Precipitation
Sfc Pvt Sub Frz Factor Pct Dpth DpthThk IcePct Cond Salin FI Type Intens Accum Rate
03/26/2019 18:48 Dry 42.4F - 37F - - - - - - 0 mhos 7 - None None - -
03/26/2019 18:45 Trace Moisture 42.4F - 37F - 5 - - - - 0 mhos 8 - None None - -
03/26/2019 18:38 Trace Moisture 42.6F - 37F - 5 - - - - 0 mhos 8 - None None - -
03/26/2019 18:28 Dry 42.6F - 37F - - - - - - 0 mhos 9 - None None - -
03/26/2019 18:18 Dry 43.0F - 37F - - - - - - 0 mhos 11 - None None - -
03/26/2019 18:15 Dry 43.2F - 37F - - - - - - 0 mhos 11 - None None - -
03/26/2019 18:08 Dry 43.5F - 37F - - - - - - 0 mhos 12 - None None - -
03/26/2019 17:58 Wet 44.1F - 37F 32F 5 0% 0.00 in - 0% 0 mhos 14 - None None - -
03/26/2019 17:48 Wet 44.8F - 37F 32F 5 0% 0.00 in - 0% 0 mhos 16 - None None - -
03/26/2019 17:45 Wet 44.8F - 37F 32F 5 0% 0.00 in - 0% 0 mhos 17 - None None - -
03/26/2019 17:37 Wet 45.3F - 37F 32F 5 0% 0.00 in - 0% 0 mhos 20 - None None - -
03/26/2019 17:27 Wet 45.9F - 37F 32F 5 0% 0.00 in - 0% 0 mhos 24 - None None - -
03/26/2019 17:17 Wet 45.9F - 37F 32F 5 0% 0.00 in - 0% 0 mhos 28 - None None - -
03/26/2019 17:15 Wet 45.7F - 37F 32F 5 0% 0.00 in - 0% 0 mhos 29 - None None - -
03/26/2019 17:07 Wet 46.0F - 37F 32F 5 0% 0.00 in - 0% 0 mhos 34 - None None - -
Date/Time
(MDT)
Sf
Temp Chem Water Layer Surface Precipitation
Sfc Pvt Sub Frz Factor Pct Dpth DpthThk IcePct Cond Salin FI Type Intens Accum Rate
03/26/2019 16:57 Wet 45.5F - 37F 32F 5 0% 0.00 in - 0% 1 mhos 45 - None None - -
03/26/2019 16:47 Wet 45.9F - 37F 32F 5 0% 0.00 in - 0% 1 mhos 60 - None None - -
03/26/2019 16:45 Wet 45.9F - 37F 32F 5 0% 0.00 in - 0% 1 mhos 65 - None None - -
03/26/2019 16:37 Wet 46.4F - 37F 32F 5 0% 0.00 in - 0% 1 mhos 81 - None None - -
03/26/2019 16:27 Wet 46.6F - 37F 32F 10 0% 0.00 in - 0% 1 mhos 105 - None None - -
03/26/2019 16:17 Wet 46.6F - 37F 32F 30 1% 0.00 in - 0% 2 mhos 135 - None None - -
03/26/2019 16:15 Wet 46.9F - 37F 32F 25 1% 0.00 in - 0% 2 mhos 141 - None None - -
03/26/2019 16:07 Wet 47.7F - 37F 32F 45 1% 0.00 in - 0% 2 mhos 171 - None None - -
03/26/2019 15:57 Wet 49.6F - 37F 32F 65 1% 0.00 in - 0% 2 mhos 195 - None None - -
03/26/2019 15:47 Wet 51.1F - 37F 32F 80 1% 0.00 in - 0% 3 mhos 230 - None None - -
03/26/2019 15:45 Wet 51.6F - 37F 32F 80 1% 0.00 in - 0% 3 mhos 240 - None None - -
03/26/2019 15:37 Wet 51.4F - 37F 32F 90 1% 0.00 in - 0% 3 mhos 280 - None None - -
03/26/2019 15:27 Wet 53.1F - 37F 32F 95 1% 0.00 in - 0% 4 mhos 325 - Yes - - -
03/26/2019 15:17 Wet 51.4F - 37F 32F 95 1% 0.00 in - 0% 4 mhos 341 - Yes - - -
03/26/2019 15:15 Wet 51.3F - 37F 32F 95 1% 0.00 in - 0% 4 mhos 342 - Yes - - -
Date/Time
(MDT)
Sf
Temp Chem Water Layer Surface Precipitation
Sfc Pvt Sub Frz Factor Pct Dpth DpthThk IcePct Cond Salin FI Type Intens Accum Rate
03/26/2019 15:06 Wet 52.9F - 37F 32F 95 1% 0.00 in - 0% 4 mhos 350 - Yes - - -
03/26/2019 14:56 Wet 54.7F - 37F 32F 95 1% 0.00 in - 0% 5 mhos 357 - Yes - - -
03/26/2019 14:46 Wet 54.3F - 37F 32F 95 1% 0.00 in - 0% 5 mhos 369 - Yes - - -
03/26/2019 14:45 Wet 54.7F - 37F 32F 95 1% 0.00 in - 0% 5 mhos 369 - Yes - - -
03/26/2019 14:36 Wet 56.5F - 37F 32F 95 1% 0.00 in - 0% 5 mhos 375 - Yes - - -
03/26/2019 14:26 Wet 54.7F - 37F 32F 95 1% 0.00 in - 0% 5 mhos 384 - Yes - - -
03/26/2019 14:16 Wet 54.3F - 37F 32F 95 2% 0.00 in - 0% 5 mhos 392 - None None - -
03/26/2019 14:15 Wet 54.1F - 37F 32F 95 2% 0.00 in - 0% 5 mhos 394 - None None - -
03/26/2019 14:06 Wet 53.1F - 37F 32F 95 2% 0.00 in - 0% 5 mhos 403 - None None - -
03/26/2019 13:56 Wet 51.3F - 37F 32F 95 2% 0.00 in - 0% 5 mhos 414 - Yes - - -
03/26/2019 13:46 Wet 48.7F - 37F 31F 95 2% 0.00 in - 0% 5 mhos 428 - Yes - - -
03/26/2019 13:45 Wet 48.4F - 37F 31F 95 2% 0.00 in - 0% 5 mhos 427 - Yes - - -
03/26/2019 13:36 Wet 47.1F - 37F 31F 95 2% 0.00 in - 0% 5 mhos 442 - Yes - - -
03/26/2019 13:26 Wet 46.8F - 37F 31F 95 2% 0.00 in - 0% 5 mhos 465 - Yes - - -
03/26/2019 13:16 Wet 46.6F - 37F 31F 95 2% 0.00 in - 0% 5 mhos 472 - Yes - - -
Date/Time
(MDT)
Sf
Temp Chem Water Layer Surface Precipitation
Sfc Pvt Sub Frz Factor Pct Dpth DpthThk IcePct Cond Salin FI Type Intens Accum Rate
03/26/2019 13:15 Wet 46.6F - 37F 31F 95 2% 0.00 in - 0% 5 mhos 471 - Yes - - -
03/26/2019 13:06 Wet 47.8F - 37F 31F 95 2% 0.00 in - 0% 6 mhos 474 - Yes - - -
03/26/2019 12:56 Wet 49.8F - 37F 31F 95 2% 0.00 in - 0% 6 mhos 481 - Yes - - -
03/26/2019 12:46 Wet 50.0F - 37F 31F 95 2% 0.00 in - 0% 6 mhos 491 - Yes - - -
03/26/2019 12:45 Wet 50.0F - 37F 31F 95 2% 0.00 in - 0% 6 mhos 491 - Yes - - -
03/26/2019 12:36 Wet 50.7F - 37F 31F 95 2% 0.00 in - 0% 6 mhos 501 - Yes - - -
03/26/2019 12:25 Wet 50.0F - 37F 31F 95 2% 0.00 in - 0% 6 mhos 514 - Yes - - -
03/26/2019 12:15 Wet 50.0F - 37F 31F 95 2% 0.00 in - 0% 6 mhos 525 - None None - -
03/26/2019 12:15 Wet 50.0F - 37F 31F 95 2% 0.00 in - 0% 6 mhos 525 - None None - -
03/26/2019 12:05 Wet 50.0F - 37F 31F 95 2% 0.00 in - 0% 6 mhos 534 - None None - -
03/26/2019 11:55 Wet 50.4F - 37F 31F 95 2% 0.00 in - 0% 7 mhos 545 - None None - -
03/26/2019 11:45 Wet 49.8F - 37F 31F 95 2% 0.00 in - 0% 7 mhos 560 - Yes - - -
03/26/2019 11:35 Wet 47.8F - 37F 31F 95 2% 0.00 in - 0% 7 mhos 576 - None None - -
03/26/2019 11:25 Wet 42.4F - 37F 31F 95 2% 0.00 in - 0% 6 mhos 593 - Yes - - -
03/26/2019 11:15 Wet 40.3F - 37F 31F 95 2% 0.00 in - 0% 6 mhos 607 - Yes - - -
Date/Time
(MDT)
Sf
Temp Chem Water Layer Surface Precipitation
Sfc Pvt Sub Frz Factor Pct Dpth DpthThk IcePct Cond Salin FI Type Intens Accum Rate
03/26/2019 11:15 Wet 40.1F - 37F 31F 95 2% 0.00 in - 0% 6 mhos 612 - Yes - - -
03/26/2019 11:05 Wet 40.1F - 37F 31F 95 2% 0.00 in - 0% 7 mhos 629 - Yes - - -
03/26/2019 10:55 Wet 39.6F - 37F 31F 95 2% 0.00 in - 0% 7 mhos 647 - Yes - - -
03/26/2019 10:45 Wet 39.2F - 37F 31F 95 3% 0.00 in - 0% 7 mhos 680 - Yes - - -
03/26/2019 10:45 Wet 39.2F - 37F 31F 95 3% 0.00 in - 0% 7 mhos 684 - Yes - - -
03/26/2019 10:35 Wet 38.7F - 37F 31F 95 3% 0.00 in - 0% 7 mhos 707 - Yes - - -
03/26/2019 10:25 Wet 38.8F - 37F 31F 95 3% 0.10 in - 0% 7 mhos 716 - Yes - - -
03/26/2019 10:15 Wet 38.3F - 37F 31F 95 3% 0.10 in - 0% 7 mhos 714 - Yes - - -
03/26/2019 10:15 Wet 38.3F - 37F 31F 95 3% 0.10 in - 0% 7 mhos 704 - Yes - - -
03/26/2019 10:05 Wet 37.2F - 37F 31F 95 3% 0.10 in - 0% 7 mhos 702 - Yes - - -
03/26/2019 09:55 Wet 36.7F - 37F 31F 95 2% 0.00 in - 0% 6 mhos 578 - Yes - - -
03/26/2019 09:45 Wet 36.0F - 37F 32F 90 0% 0.00 in - 0% 0 mhos 0 - Yes - - -
03/26/2019 09:44 Wet 36.0F - 37F 32F 80 0% 0.00 in - 0% 0 mhos 0 - Yes - - -
03/26/2019 09:34 Wet 35.4F - 37F 32F 70 0% 0.00 in - 0% 0 mhos 0 - Yes - - -
03/26/2019 09:24 Wet 35.2F - 37F 32F 5 0% 0.00 in - 0% 0 mhos 0 - Yes - - -
Date/Time
(MDT)
Sf
Temp Chem Water Layer Surface Precipitation
Sfc Pvt Sub Frz Factor Pct Dpth DpthThk IcePct Cond Salin FI Type Intens Accum Rate
03/26/2019 09:15 Wet 34.9F - 37F 32F 5 0% 0.00 in - 0% 0 mhos 0 - Yes - - -
03/26/2019 09:14 Wet 34.9F - 37F 32F 5 0% 0.00 in - 0% 0 mhos 0 - Yes - - -
03/26/2019 09:04 Wet 34.3F - 37F 32F 5 0% 0.00 in - 0% 0 mhos 0 - Yes - - -
03/26/2019 08:54 Wet 34.2F - 37F 32F 5 0% 0.00 in - 0% 0 mhos 0 - Yes - - -
03/26/2019 08:45 Wet 33.8F - 37F 32F 5 0% 0.00 in - 0% 0 mhos 0 - Yes - - -
03/26/2019 08:44 Wet 33.8F - 37F 32F 5 0% 0.00 in - 0% 0 mhos 0 - Yes - - -
03/26/2019 08:34 Wet 33.6F - 37F 32F 5 0% 0.00 in - 0% 0 mhos 0 - Yes - - -
03/26/2019 08:24 Wet 33.3F - 37F 32F 5 0% 0.00 in - 0% 0 mhos 0 - Yes - - -
03/26/2019 08:15 Wet 33.1F - 37F 32F 5 0% 0.00 in - 0% 0 mhos 0 - Yes - - -
03/26/2019 08:14 Wet 33.1F - 37F 32F 5 0% 0.00 in - 0% 0 mhos 0 - None None - -
03/26/2019 08:04 Wet 33.1F - 37F 32F 5 0% 0.00 in - 0% 0 mhos 0 - Yes - - -
03/26/2019 07:54 Wet 33.1F - 37F 32F 5 0% 0.00 in - 0% 0 mhos 0 - None None - -
03/26/2019 07:45 Trace Moisture 32.7F - 37F - 5 - - - - 0 mhos 0 - None None - -
03/26/2019 07:44 Trace Moisture 32.7F - 37F - 5 - - - - 0 mhos 0 - None None - -
03/26/2019 07:34 Trace Moisture 32.2F - 37F - 5 - - - - 0 mhos 0 - None None - -
Date/Time
(MDT)
Sf
Temp Chem Water Layer Surface Precipitation
Sfc Pvt Sub Frz Factor Pct Dpth DpthThk IcePct Cond Salin FI Type Intens Accum Rate
03/26/2019 07:24 Trace Moisture 32.0F - 37F - 5 - - - - 0 mhos 0 - None None - -
03/26/2019 07:15 Trace Moisture 32.0F - 37F - 5 - - - - 0 mhos 0 - None None - -
03/26/2019 07:14 Trace Moisture 32.0F - 37F - 5 - - - - 0 mhos 0 - None None - -
03/26/2019 07:03 Trace Moisture 32.2F - 37F - 5 - - - - 0 mhos 0 - None None - -
03/26/2019 06:53 Trace Moisture 32.4F - 37F - 5 - - - - 0 mhos 0 - None None - -
03/26/2019 06:45 Trace Moisture 32.4F - 37F - 5 - - - - 0 mhos 0 - None None - -
03/26/2019 06:43 Trace Moisture 32.4F - 37F - 5 - - - - 0 mhos 0 - None None - -
03/26/2019 06:33 Trace Moisture 32.4F - 37F - 5 - - - - 0 mhos 0 - None None - -
03/26/2019 06:23 Trace Moisture 32.7F - 37F - 5 - - - - 0 mhos 0 - None None - -
03/26/2019 06:15 Trace Moisture 32.9F - 37F - 5 - - - - 0 mhos 0 - None None - -
03/26/2019 06:13 Trace Moisture 32.9F - 37F - 5 - - - - 0 mhos 0 - None None - -
03/26/2019 06:03 Trace Moisture 33.1F - 37F - 5 - - - - 0 mhos 0 - None None - -
03/26/2019 05:53 Trace Moisture 33.3F - 37F - 5 - - - - 0 mhos 0 - None None - -
03/26/2019 05:45 Trace Moisture 33.3F - 37F - 5 - - - - 0 mhos 0 - None None - -
03/26/2019 05:43 Trace Moisture 33.3F - 37F - 5 - - - - 0 mhos 0 - None None - -
Date/Time
(MDT)
Sf
Temp Chem Water Layer Surface Precipitation
Sfc Pvt Sub Frz Factor Pct Dpth DpthThk IcePct Cond Salin FI Type Intens Accum Rate
03/26/2019 05:33 Trace Moisture 33.6F - 37F - 5 - - - - 0 mhos 0 - None None - -
03/26/2019 05:23 Trace Moisture 33.8F - 36F - 5 - - - - 0 mhos 0 - None None - -
03/26/2019 05:15 Trace Moisture 34.0F - 36F - 5 - - - - 0 mhos 0 - None None - -
03/26/2019 05:13 Trace Moisture 34.0F - 36F - 5 - - - - 0 mhos 0 - None None - -
03/26/2019 05:03 Trace Moisture 34.3F - 36F - 5 - - - - 0 mhos 0 - None None - -
03/26/2019 04:53 Trace Moisture 34.3F - 36F - 5 - - - - 0 mhos 0 - None None - -
03/26/2019 04:45 Trace Moisture 34.5F - 36F - 5 - - - - 0 mhos 0 - None None - -
03/26/2019 04:43 Trace Moisture 34.5F - 36F - 5 - - - - 0 mhos 0 - None None - -
03/26/2019 04:33 Trace Moisture 34.7F - 36F - 5 - - - - 0 mhos 0 - None None - -
03/26/2019 04:23 Trace Moisture 34.7F - 36F - 5 - - - - 0 mhos 0 - None None - -
03/26/2019 04:15 Trace Moisture 34.9F - 36F - 5 - - - - 0 mhos 0 - None None - -
03/26/2019 04:13 Trace Moisture 34.9F - 36F - 5 - - - - 0 mhos 0 - None None - -
03/26/2019 04:03 Trace Moisture 34.9F - 36F - 5 - - - - 0 mhos 0 - None None - -
03/26/2019 03:52 Trace Moisture 35.1F - 36F - 5 - - - - 0 mhos 0 - None None - -
03/26/2019 03:45 Trace Moisture 35.1F - 36F - 5 - - - - 0 mhos 0 - None None - -
Date/Time
(MDT)
Sf
Temp Chem Water Layer Surface Precipitation
Sfc Pvt Sub Frz Factor Pct Dpth DpthThk IcePct Cond Salin FI Type Intens Accum Rate
03/26/2019 03:42 Trace Moisture 35.1F - 36F - 5 - - - - 0 mhos 0 - None None - -
03/26/2019 03:32 Trace Moisture 35.2F - 36F - 5 - - - - 0 mhos 0 - None None - -
03/26/2019 03:22 Trace Moisture 35.4F - 36F - 5 - - - - 0 mhos 0 - None None - -
03/26/2019 03:15 Trace Moisture 35.4F - 36F - 5 - - - - 0 mhos 0 - None None - -
03/26/2019 03:12 Trace Moisture 35.4F - 36F - 5 - - - - 0 mhos 0 - None None - -
03/26/2019 03:02 Trace Moisture 35.4F - 36F - 5 - - - - 0 mhos 0 - None None - -
03/26/2019 02:52 Trace Moisture 35.6F - 36F - 5 - - - - 0 mhos 0 - None None - -
03/26/2019 02:45 Trace Moisture 35.6F - 36F - 5 - - - - 0 mhos 0 - None None - -
03/26/2019 02:42 Trace Moisture 35.6F - 36F - 5 - - - - 0 mhos 0 - None None - -
03/26/2019 02:32 Trace Moisture 35.8F - 36F - 5 - - - - 0 mhos 0 - None None - -
03/26/2019 02:22 Dry 36.0F - 36F - - - - - - 0 mhos 0 - None None - -
03/26/2019 02:15 Trace Moisture 36.0F - 36F - 5 - - - - 0 mhos 0 - None None - -
03/26/2019 02:12 Trace Moisture 36.0F - 36F - 5 - - - - 0 mhos 0 - None None - -
03/26/2019 02:02 Dry 36.1F - 36F - - - - - - 0 mhos 0 - None None - -
03/26/2019 01:52 Dry 36.3F - 36F - - - - - - 0 mhos 0 - None None - -
Date/Time
(MDT)
Sf
Temp Chem Water Layer Surface Precipitation
Sfc Pvt Sub Frz Factor Pct Dpth DpthThk IcePct Cond Salin FI Type Intens Accum Rate
03/26/2019 01:45 Dry 36.5F - 36F - - - - - - 0 mhos 0 - None None - -
03/26/2019 01:42 Dry 36.7F - 36F - - - - - - 0 mhos 0 - None None - -
03/26/2019 01:32 Dry 36.7F - 36F - - - - - - 0 mhos 0 - None None - -
03/26/2019 01:22 Dry 36.9F - 36F - - - - - - 0 mhos 0 - None None - -
03/26/2019 01:15 Dry 37.0F - 36F - - - - - - 0 mhos 0 - None None - -
03/26/2019 01:12 Dry 37.2F - 36F - - - - - - 0 mhos 0 - None None - -
03/26/2019 01:02 Dry 37.6F - 36F - - - - - - 0 mhos 0 - None None - -
03/26/2019 00:52 Dry 37.8F - 36F - - - - - - 0 mhos 0 - None None - -
03/26/2019 00:45 Dry 37.9F - 36F - - - - - - 0 mhos 0 - None None - -
03/26/2019 00:42 Dry 37.9F - 36F - - - - - - 0 mhos 0 - None None - -
03/26/2019 00:32 Dry 38.1F - 36F - - - - - - 0 mhos 0 - None None - -
03/26/2019 00:22 Dry 38.5F - 36F - - - - - - 0 mhos 0 - None None - -
03/26/2019 00:15 Dry 38.7F - 36F - - - - - - 0 mhos 0 - None None - -
03/26/2019 00:12 Dry 38.7F - 36F - - - - - - 0 mhos 0 - None None - -
03/26/2019 00:02 Dry 38.8F - 36F - - - - - - 0 mhos 0 - None None - -
Date/Time
(MDT)
Sf
Temp Chem Water Layer Surface Precipitation
Sfc Pvt Sub Frz Factor Pct Dpth DpthThk IcePct Cond Salin FI Type Intens Accum Rate
03/25/2019 23:52 Dry 39.2F - 36F - - - - - - 0 mhos 0 - None None - -
03/25/2019 23:45 Dry 39.2F - 36F - - - - - - 0 mhos 0 - None None - -
03/25/2019 23:42 Dry 39.2F - 35F - - - - - - 0 mhos 0 - None None - -
03/25/2019 23:32 Dry 39.4F - 35F - - - - - - 0 mhos 0 - None None - -
03/25/2019 23:22 Dry 39.7F - 35F - - - - - - 0 mhos 0 - None None - -
03/25/2019 23:15 Dry 39.7F - 35F - - - - - - 0 mhos 0 - None None - -
03/25/2019 23:12 Dry 39.9F - 35F - - - - - - 0 mhos 0 - None None - -
03/25/2019 23:02 Dry 40.1F - 35F - - - - - - 0 mhos 0 - None None - -
03/25/2019 22:52 Dry 40.3F - 35F - - - - - - 0 mhos 0 - None None - -
03/25/2019 22:45 Dry 40.5F - 35F - - - - - - 0 mhos 0 - None None - -
03/25/2019 22:42 Dry 40.5F - 35F - - - - - - 0 mhos 0 - None None - -
03/25/2019 22:31 Dry 40.6F - 35F - - - - - - 0 mhos 0 - None None - -
03/25/2019 22:21 Dry 40.8F - 35F - - - - - - 0 mhos 0 - None None - -
03/25/2019 22:15 Dry 41.0F - 35F - - - - - - 0 mhos 0 - None None - -
03/25/2019 22:11 Dry 41.2F - 35F - - - - - - 0 mhos 0 - None None - -
Date/Time
(MDT)
Sf
Temp Chem Water Layer Surface Precipitation
Sfc Pvt Sub Frz Factor Pct Dpth DpthThk IcePct Cond Salin FI Type Intens Accum Rate
03/25/2019 22:01 Dry 41.5F - 35F - - - - - - 0 mhos 0 - None None - -
03/25/2019 21:51 Dry 41.7F - 35F - - - - - - 0 mhos 0 - None None - -
03/25/2019 21:45 Dry 41.9F - 35F - - - - - - 0 mhos 0 - None None - -
03/25/2019 21:41 Dry 41.9F - 35F - - - - - - 0 mhos 0 - None None - -
03/25/2019 21:31 Dry 42.1F - 35F - - - - - - 0 mhos 0 - None None - -
03/25/2019 21:21 Dry 42.4F - 35F - - - - - - 0 mhos 0 - None None - -
03/25/2019 21:15 Dry 42.6F - 35F - - - - - - 0 mhos 0 - None None - -
03/25/2019 21:11 Dry 42.6F - 35F - - - - - - 0 mhos 0 - None None - -
03/25/2019 21:01 Dry 43.0F - 35F - - - - - - 0 mhos 0 - None None - -
Change End Date:

Copyright © 1998-2015 Vaisala, Inc.
All Rights Reserved
Send comments about the data to:
SCAN Web ® is a registered trademark of Vaisala, Inc.
SCAN Web Version 6.0